sensor_id;sensor_type;location;lat;lon;timestamp;P1;P2;P0
74426;PMS7003;62859;53.906;27.430;2023-07-02T00:02:21;5.3;4.3;3.7
74426;PMS7003;62859;53.906;27.430;2023-07-02T00:07:07;4.3;4;3.3
74426;PMS7003;62859;53.906;27.430;2023-07-02T00:12:08;5;4.5;3.3
74426;PMS7003;62859;53.906;27.430;2023-07-02T00:17:45;6.3;6;3.7
74426;PMS7003;62859;53.906;27.430;2023-07-02T00:21:59;6.3;5;3.7
74426;PMS7003;62859;53.906;27.430;2023-07-02T00:27:31;5;5;3.7
74426;PMS7003;62859;53.906;27.430;2023-07-02T00:32:45;7.3;6.5;4.8
74426;PMS7003;62859;53.906;27.430;2023-07-02T00:37:35;4;3.3;2.7
74426;PMS7003;62859;53.906;27.430;2023-07-02T00:42:19;5.3;4.7;3.7
74426;PMS7003;62859;53.906;27.430;2023-07-02T00:47:35;5;4.7;3.7
74426;PMS7003;62859;53.906;27.430;2023-07-02T00:52:45;5;3.5;2.8
74426;PMS7003;62859;53.906;27.430;2023-07-02T00:57:43;3.7;3.3;2.3
74426;PMS7003;62859;53.906;27.430;2023-07-02T01:02:52;5;4.7;3
74426;PMS7003;62859;53.906;27.430;2023-07-02T01:07:45;5.3;5.3;3.7
74426;PMS7003;62859;53.906;27.430;2023-07-02T01:12:15;4.5;3.5;2.8
74426;PMS7003;62859;53.906;27.430;2023-07-02T01:17:07;4.7;4.3;3
74426;PMS7003;62859;53.906;27.430;2023-07-02T01:22:35;5.3;5;3.3
74426;PMS7003;62859;53.906;27.430;2023-07-02T01:27:45;5.3;4;3
74426;PMS7003;62859;53.906;27.430;2023-07-02T01:32:29;6.3;4;2.8
74426;PMS7003;62859;53.906;27.430;2023-07-02T01:37:35;5.3;5.3;3.7
74426;PMS7003;62859;53.906;27.430;2023-07-02T01:42:45;4.3;4.3;3
74426;PMS7003;62859;53.906;27.430;2023-07-02T01:46:59;4;4;2.7
74426;PMS7003;62859;53.906;27.430;2023-07-02T01:52:11;5.5;5.3;3
74426;PMS7003;62859;53.906;27.430;2023-07-02T01:57:19;4.7;3.3;2.7
74426;PMS7003;62859;53.906;27.430;2023-07-02T02:02:45;3.3;3.3;2.3
74426;PMS7003;62859;53.906;27.430;2023-07-02T02:07:21;4.5;4;2.8
74426;PMS7003;62859;53.906;27.430;2023-07-02T02:12:35;3.7;3.3;2.3
74426;PMS7003;62859;53.906;27.430;2023-07-02T02:17:21;3.7;3.7;3
74426;PMS7003;62859;53.906;27.430;2023-07-02T02:22:07;5.3;4.7;3.3
74426;PMS7003;62859;53.906;27.430;2023-07-02T02:27:30;5.3;4.8;3.5
74426;PMS7003;62859;53.906;27.430;2023-07-02T02:32:19;4.3;4.3;3
74426;PMS7003;62859;53.906;27.430;2023-07-02T02:37:15;5;3.7;2.7
74426;PMS7003;62859;53.906;27.430;2023-07-02T02:42:13;5;5;3.3
74426;PMS7003;62859;53.906;27.430;2023-07-02T02:47:45;6.5;5.5;4
74426;PMS7003;62859;53.906;27.430;2023-07-02T02:52:17;5.7;5.7;3.3
74426;PMS7003;62859;53.906;27.430;2023-07-02T02:56:59;5.3;5;4.3
74426;PMS7003;62859;53.906;27.430;2023-07-02T03:02:45;4.3;4.3;3
74426;PMS7003;62859;53.906;27.430;2023-07-02T03:07:21;4.3;3.8;2.8
74426;PMS7003;62859;53.906;27.430;2023-07-02T03:12:15;3.7;3.7;2.3
74426;PMS7003;62859;53.906;27.430;2023-07-02T03:17:07;4.3;3.7;3
74426;PMS7003;62859;53.906;27.430;2023-07-02T03:22:31;5;5;4
74426;PMS7003;62859;53.906;27.430;2023-07-02T03:26:59;3.3;2.8;2
74426;PMS7003;62859;53.906;27.430;2023-07-02T03:32:11;3.3;2.7;2
74426;PMS7003;62859;53.906;27.430;2023-07-02T03:37:45;4;4;2.7
74426;PMS7003;62859;53.906;27.430;2023-07-02T03:42:32;4;3.7;2.3
74426;PMS7003;62859;53.906;27.430;2023-07-02T03:47:15;4.3;3.5;2.5
74426;PMS7003;62859;53.906;27.430;2023-07-02T03:51:59;3.7;3.7;2.7
74426;PMS7003;62859;53.906;27.430;2023-07-02T03:57:21;4.3;3.7;2
74426;PMS7003;62859;53.906;27.430;2023-07-02T04:01:59;4.5;3.8;2.8
74426;PMS7003;62859;53.906;27.430;2023-07-02T04:07:35;4;3;2
74426;PMS7003;62859;53.906;27.430;2023-07-02T04:12:23;4.3;4;3.3
74426;PMS7003;62859;53.906;27.430;2023-07-02T04:17:31;3.3;3.3;2.7
74426;PMS7003;62859;53.906;27.430;2023-07-02T04:22:01;4;4;2.8
74426;PMS7003;62859;53.906;27.430;2023-07-02T04:27:21;4.7;4;3
74426;PMS7003;62859;53.906;27.430;2023-07-02T04:32:00;6;4.7;3.3
74426;PMS7003;62859;53.906;27.430;2023-07-02T04:37:08;3.7;3.3;2.3
74426;PMS7003;62859;53.906;27.430;2023-07-02T04:42:45;4.5;3.5;2.8
74426;PMS7003;62859;53.906;27.430;2023-07-02T04:47:00;4;3.7;2.3
74426;PMS7003;62859;53.906;27.430;2023-07-02T04:52:23;5;4;2.7
74426;PMS7003;62859;53.906;27.430;2023-07-02T04:57:45;3.3;3.3;2.3
74426;PMS7003;62859;53.906;27.430;2023-07-02T05:02:36;4.5;3.5;2.3
74426;PMS7003;62859;53.906;27.430;2023-07-02T05:07:00;4.7;3.3;2
74426;PMS7003;62859;53.906;27.430;2023-07-02T05:12:36;5.3;3.7;2.7
74426;PMS7003;62859;53.906;27.430;2023-07-02T05:17:46;3.3;3;2
74426;PMS7003;62859;53.906;27.430;2023-07-02T05:22:34;3.3;3.3;2.3
74426;PMS7003;62859;53.906;27.430;2023-07-02T05:27:46;4.3;3.3;2
74426;PMS7003;62859;53.906;27.430;2023-07-02T05:32:46;3;2.7;1.7
74426;PMS7003;62859;53.906;27.430;2023-07-02T05:37:00;3.3;2.7;2.3
74426;PMS7003;62859;53.906;27.430;2023-07-02T05:42:46;4;3.5;2.3
74426;PMS7003;62859;53.906;27.430;2023-07-02T05:47:36;2.7;2.3;1.7
74426;PMS7003;62859;53.906;27.430;2023-07-02T05:52:46;3.3;3;2.3
74426;PMS7003;62859;53.906;27.430;2023-07-02T05:57:30;4.3;3.3;2
74426;PMS7003;62859;53.906;27.430;2023-07-02T06:02:34;4;3.3;3
74426;PMS7003;62859;53.906;27.430;2023-07-02T06:07:46;3.3;2.3;1.3
74426;PMS7003;62859;53.906;27.430;2023-07-02T06:12:08;3.7;3.7;2.7
74426;PMS7003;62859;53.906;27.430;2023-07-02T06:17:00;4.3;4.3;3
74426;PMS7003;62859;53.906;27.430;2023-07-02T06:22:20;4.7;4;2.7
74426;PMS7003;62859;53.906;27.430;2023-07-02T06:27:00;5.3;5;4
74426;PMS7003;62859;53.906;27.430;2023-07-02T06:32:30;5;4;2.7
74426;PMS7003;62859;53.906;27.430;2023-07-02T06:37:46;6.3;5.5;4.3
74426;PMS7003;62859;53.906;27.430;2023-07-02T06:42:00;7.7;7.7;6
74426;PMS7003;62859;53.906;27.430;2023-07-02T06:47:14;8.3;6.7;5.3
74426;PMS7003;62859;53.906;27.430;2023-07-02T06:52:46;9;7.7;6
74426;PMS7003;62859;53.906;27.430;2023-07-02T06:57:12;8.5;8.3;5.5
74426;PMS7003;62859;53.906;27.430;2023-07-02T07:02:16;7.7;5.7;4.3
74426;PMS7003;62859;53.906;27.430;2023-07-02T07:07:00;8.3;7;5
74426;PMS7003;62859;53.906;27.430;2023-07-02T07:12:46;7.7;6.7;5.3
74426;PMS7003;62859;53.906;27.430;2023-07-02T07:17:12;7.8;6.8;4.5
74426;PMS7003;62859;53.906;27.430;2023-07-02T07:22:00;6;5.7;4
74426;PMS7003;62859;53.906;27.430;2023-07-02T07:27:46;8.3;7;5.7
74426;PMS7003;62859;53.906;27.430;2023-07-02T07:32:30;8;6.3;5
74426;PMS7003;62859;53.906;27.430;2023-07-02T07:37:16;8;7.3;5.8
74426;PMS7003;62859;53.906;27.430;2023-07-02T07:42:14;6.3;5.3;4.7
74426;PMS7003;62859;53.906;27.430;2023-07-02T07:47:32;7.7;6.7;4.7
74426;PMS7003;62859;53.906;27.430;2023-07-02T07:52:00;7.8;7.5;5.8
74426;PMS7003;62859;53.906;27.430;2023-07-02T07:57:46;9;7.3;4.7
74426;PMS7003;62859;53.906;27.430;2023-07-02T08:02:46;7.7;7.3;5.3
74426;PMS7003;62859;53.906;27.430;2023-07-02T08:07:32;10.7;7.3;5.3
74426;PMS7003;62859;53.906;27.430;2023-07-02T08:12:00;7.8;7;5.5
74426;PMS7003;62859;53.906;27.430;2023-07-02T08:17:22;9.7;8;6
74426;PMS7003;62859;53.906;27.430;2023-07-02T08:22:00;8.3;7.7;6
74426;PMS7003;62859;53.906;27.430;2023-07-02T08:27:08;6.7;6.3;4.7
74426;PMS7003;62859;53.906;27.430;2023-07-02T08:32:28;7.8;6;4.5
74426;PMS7003;62859;53.906;27.430;2023-07-02T08:37:36;6.7;6;5
74426;PMS7003;62859;53.906;27.430;2023-07-02T08:42:10;7;7;4.7
74426;PMS7003;62859;53.906;27.430;2023-07-02T08:47:30;8.3;8;6.3
74426;PMS7003;62859;53.906;27.430;2023-07-02T08:52:22;8.5;7.3;5.5
74426;PMS7003;62859;53.906;27.430;2023-07-02T08:57:00;8.3;7.7;5
74426;PMS7003;62859;53.906;27.430;2023-07-02T09:02:08;8.7;8;6
74426;PMS7003;62859;53.906;27.430;2023-07-02T09:07:46;8;7.3;5
74426;PMS7003;62859;53.906;27.430;2023-07-02T09:12:24;8.5;7;4.8
74426;PMS7003;62859;53.906;27.430;2023-07-02T09:17:02;8.3;7.3;5.7
74426;PMS7003;62859;53.906;27.430;2023-07-02T09:22:53;9.3;8.7;6.7
74426;PMS7003;62859;53.906;27.430;2023-07-02T09:27:36;8.3;7.3;4.7
74426;PMS7003;62859;53.906;27.430;2023-07-02T09:32:10;10;8.3;5.8
74426;PMS7003;62859;53.906;27.430;2023-07-02T09:37:36;9;8.3;6
74426;PMS7003;62859;53.906;27.430;2023-07-02T09:42:46;11;9.3;7.3
74426;PMS7003;62859;53.906;27.430;2023-07-02T09:47:47;9.8;9.5;6
74426;PMS7003;62859;53.906;27.430;2023-07-02T09:52:46;9.7;7.3;5
74426;PMS7003;62859;53.906;27.430;2023-07-02T09:57:46;10.3;9;6
74426;PMS7003;62859;53.906;27.430;2023-07-02T10:02:16;9;8;6
74426;PMS7003;62859;53.906;27.430;2023-07-02T10:07:00;9.3;8.5;6
74426;PMS7003;62859;53.906;27.430;2023-07-02T10:12:45;10.3;9.3;6.7
74426;PMS7003;62859;53.906;27.430;2023-07-02T10:17:54;9.7;8;6.3
74426;PMS7003;62859;53.906;27.430;2023-07-02T10:22:30;10.7;9;6.3
74426;PMS7003;62859;53.906;27.430;2023-07-02T10:27:36;10;9.3;6.8
74426;PMS7003;62859;53.906;27.430;2023-07-02T10:32:29;9.7;8.7;6.7
74426;PMS7003;62859;53.906;27.430;2023-07-02T10:37:00;8.7;7.7;6
74426;PMS7003;62859;53.906;27.430;2023-07-02T10:42:46;8.3;7.3;5.3
74426;PMS7003;62859;53.906;27.430;2023-07-02T10:47:20;10.3;9;5.8
74426;PMS7003;62859;53.906;27.430;2023-07-02T10:52:16;11;9.7;7.3
74426;PMS7003;62859;53.906;27.430;2023-07-02T10:57:30;9;7.3;5.3
74426;PMS7003;62859;53.906;27.430;2023-07-02T11:02:46;10.3;8.7;6
74426;PMS7003;62859;53.906;27.430;2023-07-02T11:07:00;9.8;8.8;6.8
74426;PMS7003;62859;53.906;27.430;2023-07-02T11:12:08;9.3;9;6.3
74426;PMS7003;62859;53.906;27.430;2023-07-02T11:17:30;9.7;9;6.3
74426;PMS7003;62859;53.906;27.430;2023-07-02T11:22:20;10.3;8.3;6
74426;PMS7003;62859;53.906;27.430;2023-07-02T11:27:20;9.3;8.7;6
74426;PMS7003;62859;53.906;27.430;2023-07-02T11:32:22;7.7;7.7;5
74426;PMS7003;62859;53.906;27.430;2023-07-02T11:37:46;9.7;9;6.7
74426;PMS7003;62859;53.906;27.430;2023-07-02T11:42:00;10.5;9.3;7
74426;PMS7003;62859;53.906;27.430;2023-07-02T11:47:00;12;10.7;7.3
74426;PMS7003;62859;53.906;27.430;2023-07-02T11:52:44;10.7;10.7;7.3
74426;PMS7003;62859;53.906;27.430;2023-07-02T11:57:30;9;8.7;7.3
74426;PMS7003;62859;53.906;27.430;2023-07-02T12:02:16;10;8.8;6
74426;PMS7003;62859;53.906;27.430;2023-07-02T12:07:00;10.3;9.7;7
74426;PMS7003;62859;53.906;27.430;2023-07-02T12:12:32;10;9;5.7
74426;PMS7003;62859;53.906;27.430;2023-07-02T12:17:08;13.7;11;8
74426;PMS7003;62859;53.906;27.430;2023-07-02T12:22:00;11;10.3;6.8
74426;PMS7003;62859;53.906;27.430;2023-07-02T12:27:46;10.7;9.7;6
74426;PMS7003;62859;53.906;27.430;2023-07-02T12:32:18;12.3;8.7;6.3
74426;PMS7003;62859;53.906;27.430;2023-07-02T12:37:16;9.3;8;6
74426;PMS7003;62859;53.906;27.430;2023-07-02T12:42:28;12.3;10;7.3
74426;PMS7003;62859;53.906;27.430;2023-07-02T12:47:00;11;10;7
74426;PMS7003;62859;53.906;27.430;2023-07-02T12:52:08;11.7;10;7
74426;PMS7003;62859;53.906;27.430;2023-07-02T12:57:00;9.7;9.3;7.3
74426;PMS7003;62859;53.906;27.430;2023-07-02T13:02:36;11.8;11;7
74426;PMS7003;62859;53.906;27.430;2023-07-02T13:07:32;11;9.3;7
74426;PMS7003;62859;53.906;27.430;2023-07-02T13:12:32;10.7;9.3;6.3
74426;PMS7003;62859;53.906;27.430;2023-07-02T13:17:00;10;9;7
74426;PMS7003;62859;53.906;27.430;2023-07-02T13:22:08;7.7;7.7;5.7
74426;PMS7003;62859;53.906;27.430;2023-07-02T13:27:00;6.3;5.7;5
74426;PMS7003;62859;53.906;27.430;2023-07-02T13:32:46;8;6.7;5.3
74426;PMS7003;62859;53.906;27.430;2023-07-02T13:37:08;7.5;7.3;5.5
74426;PMS7003;62859;53.906;27.430;2023-07-02T13:42:32;7.3;7.3;5.3
74426;PMS7003;62859;53.906;27.430;2023-07-02T13:47:46;9.3;7.3;5.3
74426;PMS7003;62859;53.906;27.430;2023-07-02T13:52:36;8;7;5.7
74426;PMS7003;62859;53.906;27.430;2023-07-02T13:57:20;9;7.3;5.3
74426;PMS7003;62859;53.906;27.430;2023-07-02T14:02:36;7.7;6.3;4.3
74426;PMS7003;62859;53.906;27.430;2023-07-02T14:07:46;8.3;7.3;5.3
74426;PMS7003;62859;53.906;27.430;2023-07-02T14:12:46;8.3;7;5
74426;PMS7003;62859;53.906;27.430;2023-07-02T14:17:46;8.3;7.5;6
74426;PMS7003;62859;53.906;27.430;2023-07-02T14:22:46;6.3;6.3;5
74426;PMS7003;62859;53.906;27.430;2023-07-02T14:27:16;8.7;8.3;6
74426;PMS7003;62859;53.906;27.430;2023-07-02T14:32:38;6.3;6.3;5.3
74426;PMS7003;62859;53.906;27.430;2023-07-02T14:37:36;9;7.5;5.8
74426;PMS7003;62859;53.906;27.430;2023-07-02T14:42:46;9.3;7.7;6
74426;PMS7003;62859;53.906;27.430;2023-07-02T14:47:30;9;8.3;6.7
74426;PMS7003;62859;53.906;27.430;2023-07-02T14:52:46;8;8;6
74426;PMS7003;62859;53.906;27.430;2023-07-02T14:57:22;8.8;8.5;6.3
74426;PMS7003;62859;53.906;27.430;2023-07-02T15:02:00;8;7.7;6
74426;PMS7003;62859;53.906;27.430;2023-07-02T15:07:46;9;9;6.3
74426;PMS7003;62859;53.906;27.430;2023-07-02T15:12:08;11;9;6.8
74426;PMS7003;62859;53.906;27.430;2023-07-02T15:17:16;8.3;7.7;6.3
74426;PMS7003;62859;53.906;27.430;2023-07-02T15:22:30;8;7.3;5.3
74426;PMS7003;62859;53.906;27.430;2023-07-02T15:27:46;9.3;8.3;6.7
74426;PMS7003;62859;53.906;27.430;2023-07-02T15:32:00;9.5;8.8;6.8
74426;PMS7003;62859;53.906;27.430;2023-07-02T15:37:00;10;10;7.3
74426;PMS7003;62859;53.906;27.430;2023-07-02T15:42:30;9.7;8.7;6
74426;PMS7003;62859;53.906;27.430;2023-07-02T15:47:00;9.7;8.7;6.3
74426;PMS7003;62859;53.906;27.430;2023-07-02T15:52:08;8.8;8.5;6.8
74426;PMS7003;62859;53.906;27.430;2023-07-02T15:57:20;9.7;8.7;7.3
74426;PMS7003;62859;53.906;27.430;2023-07-02T16:02:46;10.3;10;7.3
74426;PMS7003;62859;53.906;27.430;2023-07-02T16:07:20;12.7;12;8.3
74426;PMS7003;62859;53.906;27.430;2023-07-02T16:12:00;12.3;10.3;8
74426;PMS7003;62859;53.906;27.430;2023-07-02T16:17:46;11.3;10;7.7
74426;PMS7003;62859;53.906;27.430;2023-07-02T16:22:30;8;8;5.7
74426;PMS7003;62859;53.906;27.430;2023-07-02T16:27:46;4.3;3.7;2.3
74426;PMS7003;62859;53.906;27.430;2023-07-02T16:32:22;3.8;3.3;2.3
74426;PMS7003;62859;53.906;27.430;2023-07-02T16:37:32;3;3;2
74426;PMS7003;62859;53.906;27.430;2023-07-02T16:42:00;3.7;2.7;1.7
74426;PMS7003;62859;53.906;27.430;2023-07-02T16:47:20;3;2.3;1.7
74426;PMS7003;62859;53.906;27.430;2023-07-02T16:52:46;2.5;2;1.5
74426;PMS7003;62859;53.906;27.430;2023-07-02T16:57:32;2.3;1.7;1
74426;PMS7003;62859;53.906;27.430;2023-07-02T17:02:08;1.7;1.7;1.3
74426;PMS7003;62859;53.906;27.430;2023-07-02T17:07:22;1.8;1.8;1.3
74426;PMS7003;62859;53.906;27.430;2023-07-02T17:12:00;3.3;2.7;1.7
74426;PMS7003;62859;53.906;27.430;2023-07-02T17:17:02;1.7;1.7;1
74426;PMS7003;62859;53.906;27.430;2023-07-02T17:22:21;1.3;1.3;0.7
74426;PMS7003;62859;53.906;27.430;2023-07-02T17:27:36;2;1;0.3
74426;PMS7003;62859;53.906;27.430;2023-07-02T17:32:30;3;2;1.3
74426;PMS7003;62859;53.906;27.430;2023-07-02T17:37:32;3.3;3.3;2.3
74426;PMS7003;62859;53.906;27.430;2023-07-02T17:42:22;2;2;1
74426;PMS7003;62859;53.906;27.430;2023-07-02T17:47:01;2.5;1.5;1
74426;PMS7003;62859;53.906;27.430;2023-07-02T17:52:10;2;2;1
74426;PMS7003;62859;53.906;27.430;2023-07-02T17:57:46;2.7;2.3;1.7
74426;PMS7003;62859;53.906;27.430;2023-07-02T18:02:00;2;1.7;1
74426;PMS7003;62859;53.906;27.430;2023-07-02T18:07:32;2.3;1.3;0.8
74426;PMS7003;62859;53.906;27.430;2023-07-02T18:12:32;2;1.7;1
74426;PMS7003;62859;53.906;27.430;2023-07-02T18:17:36;2;2;1.7
74426;PMS7003;62859;53.906;27.430;2023-07-02T18:22:00;1.7;1.7;1.3
74426;PMS7003;62859;53.906;27.430;2023-07-02T18:27:36;1.8;1.3;1.3
74426;PMS7003;62859;53.906;27.430;2023-07-02T18:32:46;1;0.7;0.7
74426;PMS7003;62859;53.906;27.430;2023-07-02T18:37:46;2.3;1.7;1
74426;PMS7003;62859;53.906;27.430;2023-07-02T18:42:46;1.3;1.3;1
74426;PMS7003;62859;53.906;27.430;2023-07-02T18:47:46;3.3;3.3;1.3
74426;PMS7003;62859;53.906;27.430;2023-07-02T18:52:22;0.7;0.7;0.7
74426;PMS7003;62859;53.906;27.430;2023-07-02T18:57:00;1.3;1;1
74426;PMS7003;62859;53.906;27.430;2023-07-02T19:02:20;2;2;1.5
74426;PMS7003;62859;53.906;27.430;2023-07-02T19:07:32;1;1;0.7
74426;PMS7003;62859;53.906;27.430;2023-07-02T19:12:18;2.3;2.3;1.7
74426;PMS7003;62859;53.906;27.430;2023-07-02T19:17:36;2.7;2;1.3
74426;PMS7003;62859;53.906;27.430;2023-07-02T19:22:22;2;1.8;1.5
74426;PMS7003;62859;53.906;27.430;2023-07-02T19:27:00;1.7;1.3;0.7
74426;PMS7003;62859;53.906;27.430;2023-07-02T19:32:46;2;1.7;1
74426;PMS7003;62859;53.906;27.430;2023-07-02T19:37:20;2;1.3;1
74426;PMS7003;62859;53.906;27.430;2023-07-02T19:42:16;2;1.5;1.3
74426;PMS7003;62859;53.906;27.430;2023-07-02T19:47:30;2;2;1
74426;PMS7003;62859;53.906;27.430;2023-07-02T19:52:46;2.3;2.3;1.3
74426;PMS7003;62859;53.906;27.430;2023-07-02T19:57:08;2.7;2.3;2
74426;PMS7003;62859;53.906;27.430;2023-07-02T20:02:15;2;1.5;1
74426;PMS7003;62859;53.906;27.430;2023-07-02T20:07:30;3;2.7;2.3
74426;PMS7003;62859;53.906;27.430;2023-07-02T20:12:36;1.7;1.3;0.7
74426;PMS7003;62859;53.906;27.430;2023-07-02T20:17:24;1.3;1.3;0.7
74426;PMS7003;62859;53.906;27.430;2023-07-02T20:22:22;1.8;1.3;0.5
74426;PMS7003;62859;53.906;27.430;2023-07-02T20:27:46;2;2;1.3
74426;PMS7003;62859;53.906;27.430;2023-07-02T20:32:00;1.3;1;0.7
74426;PMS7003;62859;53.906;27.430;2023-07-02T20:37:08;2.3;2.3;1.3
74426;PMS7003;62859;53.906;27.430;2023-07-02T20:42:46;1.5;1.3;1
74426;PMS7003;62859;53.906;27.430;2023-07-02T20:47:30;1;0.7;0.3
74426;PMS7003;62859;53.906;27.430;2023-07-02T20:52:17;1;1;1
74426;PMS7003;62859;53.906;27.430;2023-07-02T20:57:36;3.5;3.3;2.8
74426;PMS7003;62859;53.906;27.430;2023-07-02T21:02:24;2.3;1.7;1
74426;PMS7003;62859;53.906;27.430;2023-07-02T21:07:20;0.7;0.7;0.3
74426;PMS7003;62859;53.906;27.430;2023-07-02T21:12:20;1.7;1.7;0.7
74426;PMS7003;62859;53.906;27.430;2023-07-02T21:17:47;2;1.5;1.3
74426;PMS7003;62859;53.906;27.430;2023-07-02T21:22:32;3;2.3;1.3
74426;PMS7003;62859;53.906;27.430;2023-07-02T21:27:16;2.3;2.3;1.7
74426;PMS7003;62859;53.906;27.430;2023-07-02T21:32:00;2;2;1.3
74426;PMS7003;62859;53.906;27.430;2023-07-02T21:37:14;1.5;1.5;1
74426;PMS7003;62859;53.906;27.430;2023-07-02T21:42:08;1.3;1.3;1
74426;PMS7003;62859;53.906;27.430;2023-07-02T21:47:20;1.7;1.7;1
74426;PMS7003;62859;53.906;27.430;2023-07-02T21:52:36;2.7;2.3;2
74426;PMS7003;62859;53.906;27.430;2023-07-02T21:57:40;3.8;2.8;2.5
74426;PMS7003;62859;53.906;27.430;2023-07-02T22:02:32;2.3;2.3;1.7
74426;PMS7003;62859;53.906;27.430;2023-07-02T22:07:22;2;1.3;1.3
74426;PMS7003;62859;53.906;27.430;2023-07-02T22:12:00;3.3;2.7;2.3
74426;PMS7003;62859;53.906;27.430;2023-07-02T22:17:00;3.3;3;2
74426;PMS7003;62859;53.906;27.430;2023-07-02T22:22:47;2.3;2;1.3
74426;PMS7003;62859;53.906;27.430;2023-07-02T22:27:08;2;2;1.7
74426;PMS7003;62859;53.906;27.430;2023-07-02T22:32:32;2.3;2.3;1.3
74426;PMS7003;62859;53.906;27.430;2023-07-02T22:37:46;4.3;3;1.5
74426;PMS7003;62859;53.906;27.430;2023-07-02T22:42:36;2;1.3;1.3
74426;PMS7003;62859;53.906;27.430;2023-07-02T22:47:00;3;2.3;1.3
74426;PMS7003;62859;53.906;27.430;2023-07-02T22:52:47;3;2.5;1.8
74426;PMS7003;62859;53.906;27.430;2023-07-02T22:57:46;5.7;3.7;2.3
74426;PMS7003;62859;53.906;27.430;2023-07-02T23:02:30;6.7;6.7;5.3
74426;PMS7003;62859;53.906;27.430;2023-07-02T23:07:36;8.3;6.7;5
74426;PMS7003;62859;53.906;27.430;2023-07-02T23:12:47;7.3;7;5.3
74426;PMS7003;62859;53.906;27.430;2023-07-02T23:17:08;6.7;5.7;4.3
74426;PMS7003;62859;53.906;27.430;2023-07-02T23:22:08;3.7;3.3;2.7
74426;PMS7003;62859;53.906;27.430;2023-07-02T23:27:34;3;2.7;1.7
74426;PMS7003;62859;53.906;27.430;2023-07-02T23:32:47;2.8;2.3;2
74426;PMS7003;62859;53.906;27.430;2023-07-02T23:37:30;2.3;1.7;1.3
74426;PMS7003;62859;53.906;27.430;2023-07-02T23:42:37;2.7;2.7;2.3
74426;PMS7003;62859;53.906;27.430;2023-07-02T23:47:44;2.3;2.3;1.3
74426;PMS7003;62859;53.906;27.430;2023-07-02T23:52:16;3.5;2.8;2
74426;PMS7003;62859;53.906;27.430;2023-07-02T23:57:12;3.3;2.7;2
